Grant Airport

CSX5 · Quebec, Canada

Storia di METAR CSX5 · Grant Airport

Di seguito sono riportati i METAR degli ultimi giorni. Seleziona un anno per sfogliare i METAR più vecchi, dall'anno 2007 in poi.

23 luglio 2024

Tempo Codice Tempo meteorologico Temp. Vista Base nuvolosa Vento METAR/SPECI
18:00
V
26 °C 9 mi - 020° 020° 10 kt METAR CYHU 232200Z AUTO 02010KT 9SM CLR 26/16 A3005 RMK SLP179 DENSITY ALT 1300FT
17:00
V
27 °C 9 mi - 040° 040° 6 kt METAR CYHU 232100Z AUTO 04006KT 020V090 9SM FEW050 27/16 A3005 RMK SLP178 DENSITY ALT 1400FT
16:00
V
27 °C 9 mi - 080° 080° 7 kt METAR CYHU 232000Z AUTO 08007KT 350V110 9SM CLR 27/16 A3005 RMK SLP179 DENSITY ALT 1300FT
15:20
V
26 °C 9 mi - 050° 050° 5 kt METAR CYHU 231920Z AUTO 05005KT 340V060 9SM CLR 26/16 A3005 RMK SLP179 DENSITY ALT 1300FT
15:10
I
26 °C 1½ mi - 060° 060° 6 kt METAR CYHU 231910Z AUTO 06006KT 1 1/2SM HZ FEW049 26/16 A3005 RMK SLP179 DENSITY ALT 1300FT
15:00
V
26 °C 9 mi - 030° 030° 7 kt METAR CYHU 231900Z AUTO 03007KT 9SM CLR 26/16 A3005 RMK SLP179 DENSITY ALT 1300FT
14:00
V
26 °C 9 mi - 010° 010° 4 kt METAR CYHU 231800Z AUTO 01004KT 340V100 9SM CLR 26/17 A3006 RMK SLP181 DENSITY ALT 1200FT
13:00
V
24 °C 9 mi - 090° 090° 3 kt METAR CYHU 231700Z AUTO 09003KT 360V120 9SM CLR 24/18 A3007 RMK SLP183 DENSITY ALT 1100FT
12:00
V
23 °C 9 mi - 060° 060° 5 kt METAR CYHU 231600Z AUTO 06005KT 020V090 9SM CLR 23/17 A3006 RMK SLP182 DENSITY ALT 900FT
11:00
V
21 °C 9 mi - 030° 030° 7 kt METAR CYHU 231500Z AUTO 03007KT 9SM SCT190 21/16 A3006 RMK SLP181 DENSITY ALT 700FT
10:00
V
19 °C 9 mi 17.000 ft 020° 020° 8 kt METAR CYHU 231400Z AUTO 02008KT 9SM SCT140 BKN170 19/15 A3005 RMK SLP178 DENSITY ALT 400FT
09:00
V
18 °C 9 mi 18.000 ft 010° 010° 7 kt METAR CYHU 231300Z AUTO 01007KT 9SM FEW110 SCT160 BKN180 18/15 A3005 RMK SLP178 DENSITY ALT 400FT
08:00
V
18 °C 9 mi 13.000 ft 010° 010° 8 kt METAR CYHU 231200Z AUTO 01008KT 9SM BKN130 OVC180 18/15 A3005 RMK SLP176 DENSITY ALT 300FT
07:00
V
17 °C 9 mi 12.000 ft 020° 020° 6 kt METAR CYHU 231100Z AUTO 02006KT 9SM BKN120 BKN140 17/15 A3003 RMK SLP170 DENSITY ALT 300FT
06:00
V
18 °C 9 mi 9.600 ft 030° 030° 5 kt METAR CYHU 231000Z AUTO 03005KT 9SM BKN096 OVC120 18/15 A3002 RMK SLP168 DENSITY ALT 400FT
05:19
V
18 °C 9 mi 9.100 ft 360° 360° 7 kt METAR CYHU 230919Z AUTO 36007KT 9SM BKN091 OVC110 18/15 A3001 RMK SLP163 DENSITY ALT 400FT
05:00
V
18 °C 9 mi 11.000 ft 030° 030° 5 kt METAR CYHU 230900Z AUTO 03005KT 9SM SCT091 OVC110 18/15 A3000 RMK SLP160 DENSITY ALT 400FT
05:04
V
18 °C 9 mi 9.100 ft 020° 020° 5 kt METAR CYHU 230904Z AUTO 02005KT 9SM -RA BKN091 OVC110 18/15 A3000 RMK SLP160 DENSITY ALT 400FT
04:00
V
18 °C 9 mi 10.000 ft 020° 020° 6 kt METAR CYHU 230800Z AUTO 02006KT 9SM BKN100 BKN120 OVC190 18/16 A2999 RMK SLP157 DENSITY ALT 500FT
03:00
V
19 °C 9 mi 20.000 ft 020° 020° 5 kt METAR CYHU 230700Z AUTO 02005KT 9SM BKN200 19/15 A2998 RMK SLP154 DENSITY ALT 600FT
02:24
V
20 °C 9 mi 10.000 ft Var Var 2 kt METAR CYHU 230624Z AUTO VRB02KT 9SM FEW060 BKN100 OVC120 20/16 A2998 RMK SLP154 DENSITY ALT 600FT
02:15
V
21 °C 9 mi 7.900 ft 060° 060° 3 kt METAR CYHU 230615Z AUTO 06003KT 350V070 9SM -RA SCT060 BKN079 OVC110 21/15 A2997 RMK PRESFR ICE MISG SLP152 DENSITY ALT 800FT
02:00
V
20 °C 9 mi 6.000 ft 220° 220° 3 kt METAR CYHU 230600Z AUTO 22003KT 130V240 9SM OVC060 20/16 A2999 RMK SLP157 DENSITY ALT 700FT
01:37
V
21 °C 9 mi 6.000 ft 120° 120° 3 kt METAR CYHU 230537Z AUTO 12003KT 9SM OVC060 21/15 A2999 RMK SLP156 DENSITY ALT 700FT
01:25
V
21 °C 9 mi 6.000 ft Var Var 3 kt METAR CYHU 230525Z AUTO VRB03KT 9SM -RA OVC060 21/17 A2999 RMK SLP157 DENSITY ALT 700FT
01:00
V
20 °C 9 mi 25.000 ft 100° 100° 2 kt METAR CYHU 230500Z AUTO 10002KT 9SM SCT060 SCT083 BKN250 20/15 A2999 RMK SLP156 DENSITY ALT 700FT
00:00
V
19 °C 9 mi 9.300 ft 030° 030° 4 kt METAR CYHU 230400Z AUTO 03004KT 9SM FEW060 BKN093 19/16 A2998 RMK SLP155 DENSITY ALT 600FT

22 luglio 2024

Tempo Codice Tempo meteorologico Temp. Vista Base nuvolosa Vento METAR/SPECI
23:00
V
20 °C 9 mi 8.800 ft 030° 030° 4 kt METAR CYHU 230300Z AUTO 03004KT 9SM FEW071 BKN088 20/15 A2999 RMK SLP157 DENSITY ALT 700FT
22:00
V
22 °C 9 mi - 030° 030° 3 kt METAR CYHU 230200Z AUTO 03003KT 9SM SCT060 SCT078 22/15 A3000 RMK SLP160 DENSITY ALT 900FT
21:23
V
24 °C 9 mi 7.600 ft 050° 050° 5 kt METAR CYHU 230123Z AUTO 05005KT 9SM BKN076 BKN092 24/12 A2999 RMK SLP159 DENSITY ALT 1100FT
21:21
M
23 °C 4 mi 7.600 ft 060° 060° 5 kt METAR CYHU 230121Z AUTO 06005KT 4SM HZ BKN076 BKN093 23/12 A2999 RMK SLP159 DENSITY ALT 1000FT
21:10
L
24 °C ½ mi 8.100 ft 360° 360° 0 kt METAR CYHU 230110Z AUTO 00000KT 1/2SM R24R/P6000FT/N HZ BKN081 BKN092 24/13 A2999 RMK SLP158 DENSITY ALT 1200FT
21:00
L
24 °C ¼ mi 7.600 ft 360° 360° 0 kt METAR CYHU 230100Z AUTO 00000KT 1/4SM R24R/P6000FT/U HZ BKN076 BKN089 24/12 A2999 RMK SLP157 DENSITY ALT 1100FT
20:56
L
24 °C ⅜ mi 7.600 ft 360° 360° 0 kt METAR CYHU 230056Z AUTO 00000KT 3/8SM R24R/P6000FT/U HZ BKN076 BKN089 24/15 A2999 RMK SLP156 DENSITY ALT 1100FT
20:00
V
25 °C 9 mi - 290° 290° 5 kt METAR CYHU 230000Z AUTO 29005KT 9SM SCT086 25/12 A2997 RMK SLP152 DENSITY ALT 1200FT
19:00
V
25 °C 9 mi - 230° 230° 4 kt METAR CYHU 222300Z AUTO 23004KT 200V280 9SM CLR 25/13 A2997 RMK SLP150 DENSITY ALT 1300FT
18:00
V
27 °C 9 mi - 250° 250° 7 kt METAR CYHU 222200Z AUTO 25007KT 190V270 9SM CLR 27/13 A2997 RMK SLP152 DENSITY ALT 1400FT
17:00
V
27 °C 9 mi - 190° 190° 9 - 15 kt METAR CYHU 222100Z AUTO 19009G15KT 9SM CLR 27/13 A2997 RMK SLP151 DENSITY ALT 1500FT
16:00
V
27 °C 9 mi - 220° 220° 10 - 15 kt METAR CYHU 222000Z AUTO 22010G15KT 200V280 9SM CLR 27/13 A2999 RMK SLP158 DENSITY ALT 1400FT
15:00
V
27 °C 9 mi - 210° 210° 8 - 15 kt METAR CYHU 221900Z AUTO 21008G15KT 180V280 9SM CLR 27/14 A3000 RMK SLP161 DENSITY ALT 1400FT
14:00
V
26 °C 9 mi - 230° 230° 12 - 19 kt METAR CYHU 221800Z AUTO 23012G19KT 9SM CLR 26/14 A3002 RMK SLP166 DENSITY ALT 1400FT
13:00
V
25 °C 9 mi - 230° 230° 12 kt METAR CYHU 221700Z AUTO 23012KT 200V280 9SM SCT055 25/14 A3003 RMK SLP172 DENSITY ALT 1200FT
12:00
V
24 °C 9 mi - 200° 200° 6 kt METAR CYHU 221600Z AUTO 20006KT 180V250 9SM CLR 24/13 A3004 RMK SLP174 DENSITY ALT 1100FT
11:00
V
23 °C 9 mi - 260° 260° 6 kt METAR CYHU 221500Z AUTO 26006KT 190V280 9SM CLR 23/13 A3005 RMK SLP176 DENSITY ALT 1000FT
10:00
V
22 °C 9 mi - 180° 180° 6 kt METAR CYHU 221400Z AUTO 18006KT 130V210 9SM CLR 22/15 A3005 RMK SLP178 DENSITY ALT 800FT
09:00
V
20 °C 9 mi - 100° 100° 3 kt METAR CYHU 221300Z AUTO 10003KT 070V150 9SM CLR 20/15 A3006 RMK SLP180 DENSITY ALT 600FT
08:00
V
18 °C 9 mi - 140° 140° 3 kt METAR CYHU 221200Z AUTO 14003KT 130V200 9SM CLR 18/15 A3006 RMK SLP182 DENSITY ALT 300FT
07:00
V
15 °C 9 mi - 160° 160° 3 kt METAR CYHU 221100Z AUTO 16003KT 9SM CLR 15/13 A3006 RMK SLP182
06:00
V
13 °C 9 mi - 140° 140° 3 kt METAR CYHU 221000Z AUTO 14003KT 9SM CLR 13/11 A3005 RMK SLP178
05:00
V
13 °C 9 mi - 090° 090° 2 kt METAR CYHU 220900Z AUTO 09002KT 9SM CLR 13/11 A3005 RMK SLP177
04:00
V
15 °C 9 mi - 360° 360° 0 kt METAR CYHU 220800Z AUTO 00000KT 9SM CLR 15/12 A3004 RMK SLP175
03:00
V
15 °C 9 mi - 200° 200° 2 kt METAR CYHU 220700Z AUTO 20002KT 9SM CLR 15/12 A3005 RMK SLP178
02:00
V
14 °C 9 mi - Var Var 2 kt METAR CYHU 220600Z AUTO VRB02KT 9SM CLR 14/11 A3005 RMK SLP179
01:00
V
16 °C 9 mi - 200° 200° 2 kt METAR CYHU 220500Z AUTO 20002KT 9SM CLR 16/11 A3005 RMK SLP179
00:00
V
16 °C 9 mi - 170° 170° 2 kt METAR CYHU 220400Z AUTO 17002KT 9SM CLR 16/11 A3005 RMK SLP178

21 luglio 2024

Tempo Codice Tempo meteorologico Temp. Vista Base nuvolosa Vento METAR/SPECI
23:00
V
18 °C 9 mi - 320° 320° 3 kt METAR CYHU 220300Z AUTO 32003KT 9SM CLR 18/10 A3005 RMK SLP176 DENSITY ALT 400FT
22:00
V
20 °C 9 mi - 310° 310° 5 kt METAR CYHU 220200Z AUTO 31005KT 9SM CLR 20/10 A3005 RMK SLP176 DENSITY ALT 600FT
21:00
V
21 °C 9 mi - 310° 310° 7 kt METAR CYHU 220100Z AUTO 31007KT 9SM SCT066 21/10 A3004 RMK SLP173 DENSITY ALT 800FT
20:00
V
22 °C 9 mi 6.000 ft 260° 260° 9 kt METAR CYHU 220000Z AUTO 26009KT 9SM BKN060 22/11 A3002 RMK SLP168 DENSITY ALT 900FT
19:00
V
23 °C 9 mi - 290° 290° 9 - 17 kt METAR CYHU 212300Z AUTO 29009G17KT 9SM CLR 23/10 A3001 RMK SLP164 DENSITY ALT 1000FT
18:00
V
24 °C 9 mi - 290° 290° 9 kt METAR CYHU 212200Z AUTO 29009KT 9SM SCT066 24/11 A3001 RMK SLP163 DENSITY ALT 1100FT
17:00
V
24 °C 9 mi - 290° 290° 7 - 17 kt METAR CYHU 212100Z AUTO 29007G17KT 9SM SCT060 24/11 A3001 RMK SLP164 DENSITY ALT 1100FT
16:00
V
24 °C 9 mi 6.600 ft 270° 270° 9 kt METAR CYHU 212000Z AUTO 27009KT 220V340 9SM BKN066 BKN076 24/13 A3001 RMK PRESFR SLP165 DENSITY ALT 1100FT
15:00
V
24 °C 9 mi - 290° 290° 9 - 16 kt METAR CYHU 211900Z AUTO 29009G16KT 240V310 9SM SCT066 24/11 A3002 RMK SLP169 DENSITY ALT 1000FT
14:00
V
23 °C 9 mi - 230° 230° 8 kt METAR CYHU 211800Z AUTO 23008KT 180V290 9SM SCT060 23/12 A3002 RMK SLP169 DENSITY ALT 1000FT
13:00
V
22 °C 9 mi - 330° 330° 5 kt METAR CYHU 211700Z AUTO 33005KT 210V010 9SM CLR 22/10 A3005 RMK SLP176 DENSITY ALT 800FT
12:00
V
21 °C 9 mi - 330° 330° 3 kt METAR CYHU 211600Z AUTO 33003KT 270V060 9SM CLR 21/10 A3005 RMK SLP178 DENSITY ALT 700FT
11:00
V
20 °C 9 mi - Var Var 2 kt METAR CYHU 211500Z AUTO VRB02KT 9SM CLR 20/10 A3007 RMK SLP183 DENSITY ALT 600FT
10:00
V
19 °C 9 mi - Var Var 3 kt METAR CYHU 211400Z AUTO VRB03KT 9SM CLR 19/11 A3007 RMK SLP183 DENSITY ALT 500FT
09:00
V
18 °C 9 mi - 030° 030° 3 kt METAR CYHU 211300Z AUTO 03003KT 360V070 9SM CLR 18/12 A3007 RMK SLP183 DENSITY ALT 400FT
08:00
V
17 °C 9 mi - 020° 020° 6 kt METAR CYHU 211200Z AUTO 02006KT 9SM CLR 17/14 A3006 RMK SLP182
07:00
V
15 °C 9 mi - 030° 030° 3 kt METAR CYHU 211100Z AUTO 03003KT 9SM CLR 15/13 A3006 RMK SLP180
06:00
V
13 °C 9 mi - 360° 360° 0 kt METAR CYHU 211000Z AUTO 00000KT 9SM CLR 13/12 A3005 RMK SLP177
05:00
V
13 °C 9 mi - 060° 060° 2 kt METAR CYHU 210900Z AUTO 06002KT 9SM CLR 13/12 A3003 RMK SLP172
04:00
V
14 °C 9 mi - 010° 010° 4 kt METAR CYHU 210800Z AUTO 01004KT 360V060 9SM CLR 14/13 A3002 RMK SLP167
03:00
V
16 °C 9 mi - 020° 020° 4 kt METAR CYHU 210700Z AUTO 02004KT 9SM CLR 16/15 A3002 RMK SLP166
02:00
V
18 °C 9 mi 5.000 ft 020° 020° 8 kt METAR CYHU 210600Z AUTO 02008KT 9SM FEW029 SCT040 BKN050 OVC060 18/16 A3002 RMK SLP167 DENSITY ALT 400FT
Segnala modifiche